RYR4573 LIRA-LFBT
Flight info
| Callsign | RYR4573 |
|---|---|
| Flight time | 1h 32m |
| Altitude | 36000 |
| Route | GILIO DCT MIRSA A3 STP/N0448F350 DCT PADKO/N0448F360 UY342 BULTO Y341 SALIN/N0448F350 DCT YACIM/N0447F360 DCT LOMRA DCT TEPTI |
| Aircraft | B738/M-SDE3FGILRWY/SB1 |
Departure
| Time | 2026-04-29 19:33 |
|---|---|
| Airport | Ciampino–G. B. Pastine International Airport (LIRA) |
Arrival
| Time | 2026-04-29 21:05 |
|---|---|
| Airport | Tarbes-Lourdes-Pyrénées Airport (LFBT) |
| Time | Latitude | Longitude | Altitude | Speed | Heading |
|---|---|---|---|---|---|
| 2026-04-29 19:08 | 41.80039 | 12.58977 | 378 ft | 0 kts | 123° |
| 2026-04-29 19:26 | 41.80045 | 12.58966 | 378 ft | 4 kts | 125° |
| 2026-04-29 19:26 | 41.80062 | 12.58940 | 376 ft | 3 kts | 142° |
| 2026-04-29 19:27 | 41.80076 | 12.58922 | 375 ft | 4 kts | 101° |
| 2026-04-29 19:27 | 41.80071 | 12.58892 | 375 ft | 4 kts | 54° |
| 2026-04-29 19:27 | 41.80056 | 12.58865 | 375 ft | 4 kts | 52° |
| 2026-04-29 19:27 | 41.80052 | 12.58859 | 375 ft | 1 kts | 52° |
| 2026-04-29 19:30 | 41.80056 | 12.58864 | 375 ft | 2 kts | 52° |
| 2026-04-29 19:30 | 41.80077 | 12.58901 | 374 ft | 8 kts | 52° |
| 2026-04-29 19:30 | 41.80120 | 12.58975 | 374 ft | 13 kts | 52° |
| 2026-04-29 19:30 | 41.80180 | 12.59079 | 376 ft | 15 kts | 44° |
| 2026-04-29 19:31 | 41.80281 | 12.59043 | 370 ft | 19 kts | 333° |
| 2026-04-29 19:31 | 41.80416 | 12.58950 | 365 ft | 25 kts | 333° |
| 2026-04-29 19:31 | 41.80584 | 12.58834 | 358 ft | 13 kts | 333° |
| 2026-04-29 19:31 | 41.80672 | 12.58773 | 358 ft | 16 kts | 333° |
| 2026-04-29 19:32 | 41.80753 | 12.58827 | 358 ft | 15 kts | 62° |
| 2026-04-29 19:32 | 41.80733 | 12.58938 | 361 ft | 15 kts | 153° |
| 2026-04-29 19:32 | 41.80542 | 12.59066 | 367 ft | 63 kts | 153° |
| 2026-04-29 19:32 | 41.79939 | 12.59481 | 395 ft | 130 kts | 153° |
| 2026-04-29 19:33 | 41.78971 | 12.60142 | 592 ft | 170 kts | 154° |
| 2026-04-29 19:33 | 41.77910 | 12.60749 | 1506 ft | 169 kts | 163° |
| 2026-04-29 19:33 | 41.76749 | 12.60877 | 2355 ft | 170 kts | 186° |
| 2026-04-29 19:33 | 41.75581 | 12.60422 | 3133 ft | 178 kts | 207° |
| 2026-04-29 19:34 | 41.74564 | 12.59468 | 3900 ft | 187 kts | 223° |
| 2026-04-29 19:34 | 41.73719 | 12.57956 | 4201 ft | 217 kts | 244° |
| 2026-04-29 19:34 | 41.73345 | 12.55957 | 4734 ft | 227 kts | 269° |
| 2026-04-29 19:34 | 41.73638 | 12.53844 | 5396 ft | 234 kts | 291° |
| 2026-04-29 19:35 | 41.74198 | 12.51805 | 6295 ft | 233 kts | 288° |
| 2026-04-29 19:35 | 41.74728 | 12.49674 | 6850 ft | 254 kts | 287° |
| 2026-04-29 19:35 | 41.75275 | 12.47299 | 7258 ft | 276 kts | 285° |
| 2026-04-29 19:35 | 41.75825 | 12.44800 | 8040 ft | 283 kts | 285° |
| 2026-04-29 19:36 | 41.76375 | 12.42256 | 8914 ft | 286 kts | 284° |
| 2026-04-29 19:36 | 41.76931 | 12.39674 | 9803 ft | 289 kts | 284° |
| 2026-04-29 19:36 | 41.77495 | 12.37074 | 10596 ft | 297 kts | 285° |
| 2026-04-29 19:36 | 41.78094 | 12.34312 | 10860 ft | 321 kts | 285° |
| 2026-04-29 19:37 | 41.78740 | 12.31330 | 11134 ft | 343 kts | 285° |
| 2026-04-29 19:37 | 41.78956 | 12.30335 | 11325 ft | 346 kts | 285° |
| 2026-04-29 19:37 | 41.80086 | 12.25109 | 12761 ft | 347 kts | 285° |
| 2026-04-29 19:37 | 41.80712 | 12.21987 | 13606 ft | 349 kts | 282° |
| 2026-04-29 19:38 | 41.81225 | 12.18781 | 14302 ft | 354 kts | 281° |
| 2026-04-29 19:38 | 41.81700 | 12.15525 | 15038 ft | 358 kts | 280° |
| 2026-04-29 19:38 | 41.82172 | 12.12238 | 15757 ft | 361 kts | 281° |
| 2026-04-29 19:38 | 41.82652 | 12.08921 | 16482 ft | 364 kts | 281° |
| 2026-04-29 19:39 | 41.83142 | 12.05579 | 17179 ft | 367 kts | 281° |
| 2026-04-29 19:39 | 41.83642 | 12.02207 | 17810 ft | 371 kts | 281° |
| 2026-04-29 19:39 | 41.84142 | 11.98846 | 18465 ft | 374 kts | 281° |
| 2026-04-29 19:39 | 41.84654 | 11.95411 | 19069 ft | 377 kts | 281° |
| 2026-04-29 19:40 | 41.85003 | 11.93074 | 19463 ft | 380 kts | 281° |
| 2026-04-29 19:40 | 41.85693 | 11.88449 | 20255 ft | 384 kts | 281° |
| 2026-04-29 19:40 | 41.86218 | 11.84926 | 20818 ft | 387 kts | 281° |
| 2026-04-29 19:40 | 41.86747 | 11.81364 | 21351 ft | 391 kts | 281° |
| 2026-04-29 19:41 | 41.87106 | 11.78942 | 21725 ft | 392 kts | 281° |
| 2026-04-29 19:41 | 41.87640 | 11.75341 | 22236 ft | 395 kts | 281° |
| 2026-04-29 19:41 | 41.88177 | 11.71704 | 22712 ft | 399 kts | 281° |
| 2026-04-29 19:41 | 41.88718 | 11.68034 | 23166 ft | 403 kts | 281° |
| 2026-04-29 19:42 | 41.89261 | 11.64328 | 23642 ft | 406 kts | 281° |
| 2026-04-29 19:42 | 41.89650 | 11.61871 | 23974 ft | 407 kts | 285° |
| 2026-04-29 19:42 | 41.91327 | 11.57307 | 24556 ft | 413 kts | 307° |
| 2026-04-29 19:42 | 41.93255 | 11.54422 | 25028 ft | 416 kts | 312° |
| 2026-04-29 19:43 | 41.95245 | 11.51648 | 25439 ft | 419 kts | 312° |
| 2026-04-29 19:43 | 41.97287 | 11.48828 | 25839 ft | 423 kts | 313° |
| 2026-04-29 19:43 | 41.99339 | 11.45983 | 26229 ft | 425 kts | 312° |
| 2026-04-29 19:43 | 42.01392 | 11.43113 | 26628 ft | 427 kts | 312° |
| 2026-04-29 19:44 | 42.03445 | 11.40221 | 27075 ft | 427 kts | 312° |
| 2026-04-29 19:44 | 42.05496 | 11.37315 | 27476 ft | 429 kts | 311° |
| 2026-04-29 19:44 | 42.07553 | 11.34389 | 27804 ft | 432 kts | 311° |
| 2026-04-29 19:44 | 42.09622 | 11.31440 | 28126 ft | 435 kts | 311° |
| 2026-04-29 19:45 | 42.11703 | 11.28471 | 28467 ft | 437 kts | 311° |
| 2026-04-29 19:45 | 42.13789 | 11.25491 | 28809 ft | 438 kts | 311° |
| 2026-04-29 19:45 | 42.15886 | 11.22491 | 29141 ft | 440 kts | 311° |
| 2026-04-29 19:45 | 42.17990 | 11.19481 | 29498 ft | 441 kts | 311° |
| 2026-04-29 19:46 | 42.20086 | 11.16477 | 29951 ft | 439 kts | 311° |
| 2026-04-29 19:46 | 42.22170 | 11.13490 | 30427 ft | 436 kts | 311° |
| 2026-04-29 19:46 | 42.24247 | 11.10508 | 30839 ft | 435 kts | 311° |
| 2026-04-29 19:46 | 42.26319 | 11.07532 | 31226 ft | 435 kts | 311° |
| 2026-04-29 19:47 | 42.28384 | 11.04560 | 31627 ft | 433 kts | 311° |
| 2026-04-29 19:47 | 42.30441 | 11.01598 | 32017 ft | 432 kts | 311° |
| 2026-04-29 19:47 | 42.32495 | 10.98638 | 32404 ft | 431 kts | 311° |
| 2026-04-29 19:47 | 42.34542 | 10.95685 | 32768 ft | 430 kts | 310° |
| 2026-04-29 19:48 | 42.36559 | 10.92709 | 33115 ft | 428 kts | 306° |
| 2026-04-29 19:48 | 42.37643 | 10.90500 | 33312 ft | 425 kts | 296° |
| 2026-04-29 19:48 | 42.39446 | 10.85771 | 33824 ft | 422 kts | 296° |
| 2026-04-29 19:48 | 42.40800 | 10.82250 | 34154 ft | 421 kts | 296° |
| 2026-04-29 19:49 | 42.42161 | 10.78745 | 34452 ft | 421 kts | 296° |
| 2026-04-29 19:49 | 42.43530 | 10.75243 | 34756 ft | 420 kts | 296° |
| 2026-04-29 19:49 | 42.44900 | 10.71748 | 35022 ft | 421 kts | 296° |
| 2026-04-29 19:49 | 42.46275 | 10.68243 | 35278 ft | 421 kts | 296° |
| 2026-04-29 19:50 | 42.47648 | 10.64744 | 35566 ft | 420 kts | 296° |
| 2026-04-29 19:50 | 42.49020 | 10.61248 | 35856 ft | 419 kts | 296° |
| 2026-04-29 19:50 | 42.50386 | 10.57758 | 36054 ft | 421 kts | 296° |
| 2026-04-29 19:51 | 42.53128 | 10.50747 | 36036 ft | 425 kts | 296° |
| 2026-04-29 19:51 | 42.55876 | 10.43698 | 36033 ft | 420 kts | 296° |
| 2026-04-29 19:52 | 42.58593 | 10.36712 | 36033 ft | 418 kts | 296° |
| 2026-04-29 19:52 | 42.61297 | 10.29741 | 36042 ft | 417 kts | 296° |
| 2026-04-29 19:53 | 42.63990 | 10.22778 | 36037 ft | 416 kts | 296° |
| 2026-04-29 19:53 | 42.66679 | 10.15809 | 36042 ft | 417 kts | 296° |
| 2026-04-29 19:54 | 42.70713 | 10.05326 | 36038 ft | 418 kts | 296° |
| 2026-04-29 19:54 | 42.73407 | 9.98305 | 36035 ft | 419 kts | 296° |
| 2026-04-29 19:55 | 42.75825 | 9.91092 | 36033 ft | 419 kts | 285° |
| 2026-04-29 19:55 | 42.76870 | 9.83291 | 36032 ft | 420 kts | 279° |
| 2026-04-29 19:56 | 42.77797 | 9.75427 | 36028 ft | 421 kts | 279° |
| 2026-04-29 19:56 | 42.78748 | 9.67546 | 36027 ft | 422 kts | 279° |
| 2026-04-29 19:57 | 42.79546 | 9.60988 | 36028 ft | 423 kts | 279° |
| 2026-04-29 19:57 | 42.80670 | 9.51742 | 36027 ft | 424 kts | 279° |
| 2026-04-29 19:58 | 42.81628 | 9.43822 | 36023 ft | 424 kts | 279° |
| 2026-04-29 19:58 | 42.82582 | 9.35901 | 36027 ft | 424 kts | 279° |
| 2026-04-29 19:59 | 42.83530 | 9.27962 | 36015 ft | 425 kts | 279° |
| 2026-04-29 19:59 | 42.84471 | 9.20020 | 36015 ft | 424 kts | 279° |
| 2026-04-29 20:00 | 42.85406 | 9.12089 | 36016 ft | 424 kts | 279° |
| 2026-04-29 20:00 | 42.86336 | 9.04159 | 36008 ft | 424 kts | 279° |
| 2026-04-29 20:01 | 42.87259 | 8.96234 | 36006 ft | 423 kts | 279° |
| 2026-04-29 20:01 | 42.88176 | 8.88308 | 36011 ft | 423 kts | 279° |
| 2026-04-29 20:02 | 42.89087 | 8.80381 | 36007 ft | 423 kts | 278° |
| 2026-04-29 20:02 | 42.89838 | 8.73800 | 36009 ft | 423 kts | 278° |
| 2026-04-29 20:03 | 42.90894 | 8.64526 | 36003 ft | 424 kts | 278° |
| 2026-04-29 20:03 | 42.91785 | 8.56634 | 35998 ft | 424 kts | 278° |
| 2026-04-29 20:04 | 42.92678 | 8.48680 | 35998 ft | 425 kts | 278° |
| 2026-04-29 20:04 | 42.93566 | 8.40711 | 36010 ft | 425 kts | 278° |
| 2026-04-29 20:05 | 42.94450 | 8.32739 | 36009 ft | 425 kts | 278° |
| 2026-04-29 20:05 | 42.95326 | 8.24758 | 36012 ft | 426 kts | 278° |
| 2026-04-29 20:06 | 42.96198 | 8.16757 | 36012 ft | 426 kts | 278° |
| 2026-04-29 20:06 | 42.97068 | 8.08749 | 36012 ft | 427 kts | 278° |
| 2026-04-29 20:07 | 42.97933 | 8.00730 | 36017 ft | 427 kts | 278° |
| 2026-04-29 20:07 | 42.98722 | 7.93369 | 36018 ft | 427 kts | 278° |
| 2026-04-29 20:08 | 42.99434 | 7.86701 | 36034 ft | 427 kts | 278° |
| 2026-04-29 20:08 | 43.00426 | 7.77306 | 36038 ft | 428 kts | 278° |
| 2026-04-29 20:09 | 43.01271 | 7.69246 | 36045 ft | 429 kts | 278° |
| 2026-04-29 20:09 | 43.02113 | 7.61167 | 36038 ft | 430 kts | 278° |
| 2026-04-29 20:10 | 43.02951 | 7.53071 | 36047 ft | 430 kts | 278° |
| 2026-04-29 20:10 | 43.03784 | 7.44966 | 36050 ft | 431 kts | 278° |
| 2026-04-29 20:11 | 43.04613 | 7.36857 | 36046 ft | 430 kts | 278° |
| 2026-04-29 20:11 | 43.05432 | 7.28759 | 36055 ft | 430 kts | 277° |
| 2026-04-29 20:12 | 43.06245 | 7.20662 | 36043 ft | 430 kts | 277° |
| 2026-04-29 20:12 | 43.07054 | 7.12556 | 36043 ft | 430 kts | 277° |
| 2026-04-29 20:13 | 43.07722 | 7.05816 | 36049 ft | 430 kts | 277° |
| 2026-04-29 20:13 | 43.08656 | 6.96334 | 36048 ft | 430 kts | 277° |
| 2026-04-29 20:14 | 43.09443 | 6.88272 | 36049 ft | 431 kts | 277° |
| 2026-04-29 20:14 | 43.10230 | 6.80144 | 36051 ft | 431 kts | 277° |
| 2026-04-29 20:15 | 43.11012 | 6.72015 | 36040 ft | 431 kts | 277° |
| 2026-04-29 20:15 | 43.11788 | 6.63882 | 36047 ft | 431 kts | 277° |
| 2026-04-29 20:16 | 43.12559 | 6.55739 | 36048 ft | 432 kts | 277° |
| 2026-04-29 20:16 | 43.13325 | 6.47589 | 36041 ft | 432 kts | 277° |
| 2026-04-29 20:17 | 43.14085 | 6.39434 | 36055 ft | 432 kts | 277° |
| 2026-04-29 20:17 | 43.14841 | 6.31278 | 36046 ft | 432 kts | 277° |
| 2026-04-29 20:18 | 43.15591 | 6.23115 | 36054 ft | 432 kts | 277° |
| 2026-04-29 20:18 | 43.16333 | 6.14946 | 36044 ft | 432 kts | 277° |
| 2026-04-29 20:19 | 43.17071 | 6.06772 | 36045 ft | 432 kts | 277° |
| 2026-04-29 20:19 | 43.17801 | 5.98603 | 36045 ft | 432 kts | 277° |
| 2026-04-29 20:20 | 43.18526 | 5.90436 | 36044 ft | 432 kts | 277° |
| 2026-04-29 20:20 | 43.19249 | 5.82267 | 36048 ft | 432 kts | 277° |
| 2026-04-29 20:21 | 43.19963 | 5.74095 | 36043 ft | 432 kts | 277° |
| 2026-04-29 20:21 | 43.20665 | 5.65966 | 36042 ft | 433 kts | 276° |
| 2026-04-29 20:22 | 43.21369 | 5.57774 | 36045 ft | 433 kts | 276° |
| 2026-04-29 20:22 | 43.22067 | 5.49573 | 36038 ft | 433 kts | 276° |
| 2026-04-29 20:23 | 43.22760 | 5.41369 | 36046 ft | 433 kts | 276° |
| 2026-04-29 20:23 | 43.23446 | 5.33159 | 36051 ft | 434 kts | 276° |
| 2026-04-29 20:24 | 43.24128 | 5.24947 | 36047 ft | 434 kts | 276° |
| 2026-04-29 20:24 | 43.24805 | 5.16723 | 36049 ft | 434 kts | 276° |
| 2026-04-29 20:25 | 43.25476 | 5.08487 | 36042 ft | 434 kts | 276° |
| 2026-04-29 20:25 | 43.26142 | 5.00251 | 36044 ft | 435 kts | 276° |
| 2026-04-29 20:26 | 43.26802 | 4.92000 | 36042 ft | 435 kts | 276° |
| 2026-04-29 20:26 | 43.27456 | 4.83749 | 36044 ft | 435 kts | 276° |
| 2026-04-29 20:27 | 43.27893 | 4.78219 | 36043 ft | 436 kts | 276° |
| 2026-04-29 20:27 | 43.28402 | 4.67192 | 36049 ft | 435 kts | 269° |
| 2026-04-29 20:28 | 43.28306 | 4.60232 | 36045 ft | 436 kts | 268° |
| 2026-04-29 20:28 | 43.28169 | 4.51978 | 36043 ft | 436 kts | 269° |
| 2026-04-29 20:29 | 43.28070 | 4.43662 | 36044 ft | 436 kts | 269° |
| 2026-04-29 20:29 | 43.27989 | 4.35337 | 36051 ft | 436 kts | 269° |
| 2026-04-29 20:30 | 43.27907 | 4.27019 | 36047 ft | 436 kts | 269° |
| 2026-04-29 20:30 | 43.27817 | 4.18696 | 36043 ft | 436 kts | 269° |
| 2026-04-29 20:31 | 43.27722 | 4.10371 | 36053 ft | 436 kts | 269° |
| 2026-04-29 20:31 | 43.27620 | 4.02055 | 36045 ft | 436 kts | 269° |
| 2026-04-29 20:32 | 43.27512 | 3.93753 | 36039 ft | 435 kts | 268° |
| 2026-04-29 20:32 | 43.27398 | 3.85448 | 36036 ft | 435 kts | 268° |
| 2026-04-29 20:33 | 43.27278 | 3.77147 | 36037 ft | 435 kts | 268° |
| 2026-04-29 20:33 | 43.27150 | 3.68854 | 36034 ft | 434 kts | 268° |
| 2026-04-29 20:34 | 43.27252 | 3.60558 | 36035 ft | 435 kts | 272° |
| 2026-04-29 20:34 | 43.27676 | 3.52279 | 36029 ft | 435 kts | 273° |
| 2026-04-29 20:35 | 43.28112 | 3.43994 | 36026 ft | 435 kts | 273° |
| 2026-04-29 20:35 | 43.28518 | 3.35700 | 36018 ft | 435 kts | 272° |
| 2026-04-29 20:36 | 43.28902 | 3.27411 | 36019 ft | 435 kts | 272° |
| 2026-04-29 20:36 | 43.29276 | 3.19130 | 36014 ft | 435 kts | 272° |
| 2026-04-29 20:37 | 43.29646 | 3.10843 | 36023 ft | 435 kts | 272° |
| 2026-04-29 20:37 | 43.30007 | 3.02552 | 36020 ft | 435 kts | 272° |
| 2026-04-29 20:38 | 43.30364 | 2.94252 | 35556 ft | 435 kts | 272° |
| 2026-04-29 20:38 | 43.30540 | 2.90125 | 35012 ft | 433 kts | 272° |
| 2026-04-29 20:38 | 43.30712 | 2.86052 | 34430 ft | 433 kts | 272° |
| 2026-04-29 20:39 | 43.30885 | 2.81919 | 33771 ft | 435 kts | 272° |
| 2026-04-29 20:39 | 43.31059 | 2.77723 | 33230 ft | 433 kts | 272° |
| 2026-04-29 20:39 | 43.31226 | 2.73662 | 32766 ft | 430 kts | 272° |
| 2026-04-29 20:39 | 43.31393 | 2.69576 | 32288 ft | 427 kts | 272° |
| 2026-04-29 20:40 | 43.31557 | 2.65515 | 31819 ft | 425 kts | 272° |
| 2026-04-29 20:40 | 43.31719 | 2.61484 | 31356 ft | 422 kts | 272° |
| 2026-04-29 20:40 | 43.31879 | 2.57472 | 30896 ft | 419 kts | 272° |
| 2026-04-29 20:40 | 43.32035 | 2.53493 | 30441 ft | 417 kts | 272° |
| 2026-04-29 20:41 | 43.32190 | 2.49529 | 29984 ft | 414 kts | 272° |
| 2026-04-29 20:41 | 43.32342 | 2.45591 | 29533 ft | 412 kts | 272° |
| 2026-04-29 20:41 | 43.32491 | 2.41674 | 29067 ft | 409 kts | 271° |
| 2026-04-29 20:41 | 43.32637 | 2.37787 | 28599 ft | 407 kts | 271° |
| 2026-04-29 20:42 | 43.32782 | 2.33921 | 28133 ft | 404 kts | 271° |
| 2026-04-29 20:42 | 43.32926 | 2.30078 | 27670 ft | 402 kts | 271° |
| 2026-04-29 20:42 | 43.33068 | 2.26261 | 27212 ft | 399 kts | 271° |
| 2026-04-29 20:42 | 43.33207 | 2.22465 | 26756 ft | 397 kts | 271° |
| 2026-04-29 20:43 | 43.33343 | 2.18689 | 26302 ft | 394 kts | 271° |
| 2026-04-29 20:43 | 43.33478 | 2.14943 | 25854 ft | 392 kts | 271° |
| 2026-04-29 20:43 | 43.33611 | 2.11215 | 25403 ft | 390 kts | 271° |
| 2026-04-29 20:43 | 43.33742 | 2.07511 | 24960 ft | 387 kts | 271° |
| 2026-04-29 20:44 | 43.33871 | 2.03830 | 24515 ft | 385 kts | 271° |
| 2026-04-29 20:44 | 43.33999 | 2.00174 | 24075 ft | 382 kts | 271° |
| 2026-04-29 20:44 | 43.34124 | 1.96541 | 23639 ft | 379 kts | 271° |
| 2026-04-29 20:44 | 43.34245 | 1.92934 | 23203 ft | 377 kts | 271° |
| 2026-04-29 20:45 | 43.34366 | 1.89348 | 22771 ft | 375 kts | 271° |
| 2026-04-29 20:45 | 43.34501 | 1.85788 | 22339 ft | 373 kts | 272° |
| 2026-04-29 20:45 | 43.34671 | 1.82241 | 21905 ft | 371 kts | 272° |
| 2026-04-29 20:45 | 43.34851 | 1.78723 | 21474 ft | 368 kts | 272° |
| 2026-04-29 20:46 | 43.35032 | 1.75221 | 21047 ft | 366 kts | 272° |
| 2026-04-29 20:46 | 43.35210 | 1.71743 | 20623 ft | 364 kts | 272° |
| 2026-04-29 20:46 | 43.35384 | 1.68281 | 20205 ft | 362 kts | 272° |
| 2026-04-29 20:46 | 43.35553 | 1.64839 | 19788 ft | 360 kts | 272° |
| 2026-04-29 20:47 | 43.35719 | 1.61420 | 19373 ft | 358 kts | 272° |
| 2026-04-29 20:47 | 43.35882 | 1.58024 | 18961 ft | 355 kts | 272° |
| 2026-04-29 20:47 | 43.36042 | 1.54645 | 18554 ft | 353 kts | 272° |
| 2026-04-29 20:47 | 43.36201 | 1.51285 | 18137 ft | 351 kts | 272° |
| 2026-04-29 20:48 | 43.36357 | 1.47944 | 17733 ft | 349 kts | 272° |
| 2026-04-29 20:48 | 43.36512 | 1.44624 | 17321 ft | 347 kts | 272° |
| 2026-04-29 20:48 | 43.36664 | 1.41368 | 16922 ft | 345 kts | 272° |
| 2026-04-29 20:48 | 43.36817 | 1.38043 | 16516 ft | 343 kts | 272° |
| 2026-04-29 20:49 | 43.36967 | 1.34783 | 16117 ft | 341 kts | 272° |
| 2026-04-29 20:49 | 43.37112 | 1.31585 | 15725 ft | 339 kts | 272° |
| 2026-04-29 20:49 | 43.37258 | 1.28360 | 15327 ft | 337 kts | 272° |
| 2026-04-29 20:49 | 43.37404 | 1.25117 | 14927 ft | 335 kts | 271° |
| 2026-04-29 20:50 | 43.37546 | 1.21930 | 14530 ft | 333 kts | 271° |
| 2026-04-29 20:50 | 43.37686 | 1.18762 | 14136 ft | 331 kts | 271° |
| 2026-04-29 20:50 | 43.37825 | 1.15612 | 13745 ft | 329 kts | 271° |
| 2026-04-29 20:50 | 43.37961 | 1.12477 | 13357 ft | 327 kts | 271° |
| 2026-04-29 20:51 | 43.38096 | 1.09401 | 12975 ft | 326 kts | 271° |
| 2026-04-29 20:51 | 43.38231 | 1.06258 | 12580 ft | 324 kts | 271° |
| 2026-04-29 20:51 | 43.38363 | 1.03218 | 12206 ft | 322 kts | 271° |
| 2026-04-29 20:51 | 43.38494 | 1.00156 | 11820 ft | 320 kts | 271° |
| 2026-04-29 20:52 | 43.38625 | 0.97109 | 11452 ft | 318 kts | 271° |
| 2026-04-29 20:52 | 43.38752 | 0.94081 | 11079 ft | 317 kts | 271° |
| 2026-04-29 20:52 | 43.38878 | 0.91064 | 10698 ft | 315 kts | 271° |
| 2026-04-29 20:52 | 43.39002 | 0.88072 | 10456 ft | 310 kts | 271° |
| 2026-04-29 20:53 | 43.39123 | 0.85163 | 10308 ft | 301 kts | 271° |
| 2026-04-29 20:53 | 43.39240 | 0.82331 | 10171 ft | 293 kts | 271° |
| 2026-04-29 20:53 | 43.39354 | 0.79572 | 10039 ft | 285 kts | 271° |
| 2026-04-29 20:53 | 43.39462 | 0.76889 | 9865 ft | 279 kts | 271° |
| 2026-04-29 20:54 | 43.39676 | 0.71588 | 9312 ft | 276 kts | 271° |
| 2026-04-29 20:54 | 43.39780 | 0.68958 | 9025 ft | 275 kts | 271° |
| 2026-04-29 20:54 | 43.39884 | 0.66336 | 8748 ft | 274 kts | 271° |
| 2026-04-29 20:55 | 43.39987 | 0.63717 | 8453 ft | 274 kts | 271° |
| 2026-04-29 20:55 | 43.40090 | 0.61106 | 8172 ft | 273 kts | 271° |
| 2026-04-29 20:55 | 43.40192 | 0.58500 | 7881 ft | 273 kts | 271° |
| 2026-04-29 20:55 | 43.40292 | 0.55898 | 7597 ft | 272 kts | 271° |
| 2026-04-29 20:56 | 43.40391 | 0.53301 | 7312 ft | 272 kts | 271° |
| 2026-04-29 20:56 | 43.40493 | 0.50703 | 7024 ft | 272 kts | 271° |
| 2026-04-29 20:56 | 43.40592 | 0.48116 | 6730 ft | 271 kts | 271° |
| 2026-04-29 20:56 | 43.40689 | 0.45530 | 6448 ft | 271 kts | 271° |
| 2026-04-29 20:57 | 43.40784 | 0.42948 | 6162 ft | 270 kts | 271° |
| 2026-04-29 20:57 | 43.40862 | 0.40368 | 5882 ft | 270 kts | 266° |
| 2026-04-29 20:57 | 43.40396 | 0.37904 | 5581 ft | 266 kts | 245° |
| 2026-04-29 20:57 | 43.39663 | 0.35577 | 5297 ft | 265 kts | 245° |
| 2026-04-29 20:58 | 43.38937 | 0.33254 | 5017 ft | 264 kts | 245° |
| 2026-04-29 20:58 | 43.38273 | 0.31112 | 4780 ft | 263 kts | 245° |
| 2026-04-29 20:58 | 43.37702 | 0.29258 | 4671 ft | 258 kts | 245° |
| 2026-04-29 20:58 | 43.37015 | 0.27019 | 4560 ft | 251 kts | 245° |
| 2026-04-29 20:59 | 43.36348 | 0.24835 | 4439 ft | 245 kts | 245° |
| 2026-04-29 20:59 | 43.35701 | 0.22713 | 4339 ft | 237 kts | 245° |
| 2026-04-29 20:59 | 43.35075 | 0.20658 | 4238 ft | 229 kts | 245° |
| 2026-04-29 20:59 | 43.34476 | 0.18695 | 4132 ft | 223 kts | 245° |
| 2026-04-29 21:00 | 43.33870 | 0.16724 | 3842 ft | 226 kts | 245° |
| 2026-04-29 21:00 | 43.33275 | 0.14767 | 3718 ft | 219 kts | 246° |
| 2026-04-29 21:00 | 43.32883 | 0.12781 | 3497 ft | 210 kts | 257° |
| 2026-04-29 21:00 | 43.32617 | 0.10856 | 3285 ft | 200 kts | 257° |
| 2026-04-29 21:01 | 43.32362 | 0.09031 | 3087 ft | 189 kts | 257° |
| 2026-04-29 21:01 | 43.32059 | 0.07316 | 2991 ft | 183 kts | 239° |
| 2026-04-29 21:01 | 43.31161 | 0.06247 | 3022 ft | 170 kts | 199° |
| 2026-04-29 21:01 | 43.30051 | 0.05605 | 2998 ft | 174 kts | 199° |
| 2026-04-29 21:02 | 43.28935 | 0.04994 | 2991 ft | 171 kts | 198° |
| 2026-04-29 21:02 | 43.27835 | 0.04430 | 2967 ft | 166 kts | 197° |
| 2026-04-29 21:02 | 43.26770 | 0.03887 | 2760 ft | 160 kts | 198° |
| 2026-04-29 21:02 | 43.25744 | 0.03367 | 2583 ft | 151 kts | 199° |
| 2026-04-29 21:03 | 43.24755 | 0.02866 | 2367 ft | 150 kts | 199° |
| 2026-04-29 21:03 | 43.23783 | 0.02374 | 2170 ft | 148 kts | 201° |
| 2026-04-29 21:03 | 43.22832 | 0.01886 | 1997 ft | 144 kts | 201° |
| 2026-04-29 21:03 | 43.21875 | 0.01396 | 1761 ft | 149 kts | 202° |
| 2026-04-29 21:04 | 43.20912 | 0.00908 | 1561 ft | 147 kts | 201° |
| 2026-04-29 21:04 | 43.19951 | 0.00421 | 1379 ft | 149 kts | 201° |
| 2026-04-29 21:04 | 43.18980 | -0.00067 | 1199 ft | 148 kts | 201° |
| 2026-04-29 21:04 | 43.18123 | -0.00503 | 1213 ft | 104 kts | 200° |
| 2026-04-29 21:05 | 43.17588 | -0.00775 | 1224 ft | 72 kts | 200° |
| 2026-04-29 21:05 | 43.17198 | -0.00972 | 1247 ft | 45 kts | 200° |
| 2026-04-29 21:05 | 43.17084 | -0.00907 | 1249 ft | 14 kts | 110° |
| 2026-04-29 21:05 | 43.17078 | -0.00781 | 1245 ft | 14 kts | 52° |
| 2026-04-29 21:06 | 43.17170 | -0.00721 | 1240 ft | 16 kts | 20° |
| 2026-04-29 21:06 | 43.17279 | -0.00666 | 1237 ft | 18 kts | 20° |
| 2026-04-29 21:06 | 43.17404 | -0.00602 | 1230 ft | 21 kts | 20° |
| 2026-04-29 21:06 | 43.17561 | -0.00522 | 1225 ft | 26 kts | 22° |
| 2026-04-29 21:07 | 43.17726 | -0.00410 | 1220 ft | 26 kts | 29° |
| 2026-04-29 21:07 | 43.17889 | -0.00287 | 1215 ft | 27 kts | 29° |
| 2026-04-29 21:07 | 43.17998 | -0.00204 | 1212 ft | 27 kts | 29° |
| 2026-04-29 21:07 | 43.18205 | -0.00046 | 1205 ft | 24 kts | 29° |
| 2026-04-29 21:08 | 43.18327 | 0.00048 | 1201 ft | 18 kts | 28° |
| 2026-04-29 21:08 | 43.18423 | 0.00128 | 1197 ft | 13 kts | 51° |
| 2026-04-29 21:08 | 43.18422 | 0.00247 | 1196 ft | 11 kts | 68° |
| 2026-04-29 21:08 | 43.18464 | 0.00298 | 1195 ft | 2 kts | 37° |
| 2026-04-29 21:09 | 43.18475 | 0.00309 | 1195 ft | 2 kts | 37° |
| 2026-04-29 21:09 | 43.18477 | 0.00311 | 1195 ft | 0 kts | 37° |